sensor_id;sensor_type;location;lat;lon;timestamp;temperature;humidity
69328;DHT22;56472;52.114;5.492;2023-09-07T00:00:32;24.40;70.30
69328;DHT22;56472;52.114;5.492;2023-09-07T00:02:59;24.40;70.40
69328;DHT22;56472;52.114;5.492;2023-09-07T00:05:26;24.40;70.50
69328;DHT22;56472;52.114;5.492;2023-09-07T00:07:53;24.30;70.60
69328;DHT22;56472;52.114;5.492;2023-09-07T00:10:20;24.40;70.80
69328;DHT22;56472;52.114;5.492;2023-09-07T00:12:47;24.30;71.00
69328;DHT22;56472;52.114;5.492;2023-09-07T00:15:14;24.30;71.10
69328;DHT22;56472;52.114;5.492;2023-09-07T00:17:41;24.30;71.20
69328;DHT22;56472;52.114;5.492;2023-09-07T00:20:08;24.30;71.20
69328;DHT22;56472;52.114;5.492;2023-09-07T00:22:40;24.30;71.20
69328;DHT22;56472;52.114;5.492;2023-09-07T00:25:07;24.20;71.20
69328;DHT22;56472;52.114;5.492;2023-09-07T00:27:35;24.20;71.00
69328;DHT22;56472;52.114;5.492;2023-09-07T00:30:03;24.20;71.00
69328;DHT22;56472;52.114;5.492;2023-09-07T00:32:36;24.20;70.90
69328;DHT22;56472;52.114;5.492;2023-09-07T00:35:03;24.20;70.70
69328;DHT22;56472;52.114;5.492;2023-09-07T00:37:30;24.20;70.50
69328;DHT22;56472;52.114;5.492;2023-09-07T00:39:57;24.10;70.30
69328;DHT22;56472;52.114;5.492;2023-09-07T00:42:24;24.10;70.10
69328;DHT22;56472;52.114;5.492;2023-09-07T00:44:50;24.10;70.00
69328;DHT22;56472;52.114;5.492;2023-09-07T00:47:18;24.10;69.90
69328;DHT22;56472;52.114;5.492;2023-09-07T00:49:45;24.10;69.80
69328;DHT22;56472;52.114;5.492;2023-09-07T00:52:12;24.10;69.70
69328;DHT22;56472;52.114;5.492;2023-09-07T00:54:40;24.10;69.70
69328;DHT22;56472;52.114;5.492;2023-09-07T00:57:09;24.10;69.60
69328;DHT22;56472;52.114;5.492;2023-09-07T00:59:36;24.10;69.50
69328;DHT22;56472;52.114;5.492;2023-09-07T01:02:03;24.00;69.20
69328;DHT22;56472;52.114;5.492;2023-09-07T01:04:32;24.00;69.10
69328;DHT22;56472;52.114;5.492;2023-09-07T01:07:12;24.00;69.90
69328;DHT22;56472;52.114;5.492;2023-09-07T01:09:42;24.00;68.80
69328;DHT22;56472;52.114;5.492;2023-09-07T01:12:16;23.90;68.70
69328;DHT22;56472;52.114;5.492;2023-09-07T01:14:43;23.90;68.60
69328;DHT22;56472;52.114;5.492;2023-09-07T01:17:10;23.90;68.60
69328;DHT22;56472;52.114;5.492;2023-09-07T01:19:39;23.90;68.60
69328;DHT22;56472;52.114;5.492;2023-09-07T01:22:09;23.90;68.60
69328;DHT22;56472;52.114;5.492;2023-09-07T01:24:37;23.90;68.50
69328;DHT22;56472;52.114;5.492;2023-09-07T01:27:05;23.80;68.50
69328;DHT22;56472;52.114;5.492;2023-09-07T01:29:33;23.80;68.50
69328;DHT22;56472;52.114;5.492;2023-09-07T01:32:01;23.80;68.50
69328;DHT22;56472;52.114;5.492;2023-09-07T01:34:28;23.80;68.50
69328;DHT22;56472;52.114;5.492;2023-09-07T01:36:55;23.80;68.60
69328;DHT22;56472;52.114;5.492;2023-09-07T01:39:22;23.80;68.60
69328;DHT22;56472;52.114;5.492;2023-09-07T01:41:49;23.70;68.50
69328;DHT22;56472;52.114;5.492;2023-09-07T01:44:16;23.70;68.40
69328;DHT22;56472;52.114;5.492;2023-09-07T01:46:42;23.70;68.40
69328;DHT22;56472;52.114;5.492;2023-09-07T01:49:09;23.70;68.30
69328;DHT22;56472;52.114;5.492;2023-09-07T01:51:36;23.70;68.20
69328;DHT22;56472;52.114;5.492;2023-09-07T01:54:03;23.70;68.20
69328;DHT22;56472;52.114;5.492;2023-09-07T01:56:31;23.60;68.10
69328;DHT22;56472;52.114;5.492;2023-09-07T01:58:59;23.60;68.10
69328;DHT22;56472;52.114;5.492;2023-09-07T02:01:28;23.60;68.10
69328;DHT22;56472;52.114;5.492;2023-09-07T02:03:57;23.60;68.10
69328;DHT22;56472;52.114;5.492;2023-09-07T02:06:24;23.60;68.10
69328;DHT22;56472;52.114;5.492;2023-09-07T02:08:51;23.60;68.10
69328;DHT22;56472;52.114;5.492;2023-09-07T02:11:18;23.50;68.10
69328;DHT22;56472;52.114;5.492;2023-09-07T02:13:46;23.50;68.10
69328;DHT22;56472;52.114;5.492;2023-09-07T02:16:14;23.50;69.00
69328;DHT22;56472;52.114;5.492;2023-09-07T02:18:42;23.50;68.20
69328;DHT22;56472;52.114;5.492;2023-09-07T02:21:13;23.50;68.20
69328;DHT22;56472;52.114;5.492;2023-09-07T02:23:40;23.50;68.20
69328;DHT22;56472;52.114;5.492;2023-09-07T02:26:07;23.50;68.20
69328;DHT22;56472;52.114;5.492;2023-09-07T02:28:34;23.50;68.30
69328;DHT22;56472;52.114;5.492;2023-09-07T02:31:05;23.50;68.30
69328;DHT22;56472;52.114;5.492;2023-09-07T02:33:33;23.40;68.30
69328;DHT22;56472;52.114;5.492;2023-09-07T02:36:00;23.40;68.30
69328;DHT22;56472;52.114;5.492;2023-09-07T02:38:27;23.40;68.30
69328;DHT22;56472;52.114;5.492;2023-09-07T02:40:55;23.40;68.40
69328;DHT22;56472;52.114;5.492;2023-09-07T02:43:23;23.40;68.40
69328;DHT22;56472;52.114;5.492;2023-09-07T02:45:50;23.40;68.40
69328;DHT22;56472;52.114;5.492;2023-09-07T02:48:20;23.40;68.50
69328;DHT22;56472;52.114;5.492;2023-09-07T02:50:48;23.40;68.50
69328;DHT22;56472;52.114;5.492;2023-09-07T02:53:17;23.30;68.40
69328;DHT22;56472;52.114;5.492;2023-09-07T02:55:44;23.30;68.40
69328;DHT22;56472;52.114;5.492;2023-09-07T02:58:11;23.30;68.40
69328;DHT22;56472;52.114;5.492;2023-09-07T03:00:45;23.30;68.40
69328;DHT22;56472;52.114;5.492;2023-09-07T03:03:15;23.30;68.40
69328;DHT22;56472;52.114;5.492;2023-09-07T03:05:44;23.30;68.40
69328;DHT22;56472;52.114;5.492;2023-09-07T03:08:12;23.30;68.40
69328;DHT22;56472;52.114;5.492;2023-09-07T03:10:39;23.30;68.40
69328;DHT22;56472;52.114;5.492;2023-09-07T03:13:07;23.20;68.30
69328;DHT22;56472;52.114;5.492;2023-09-07T03:15:35;23.20;68.30
69328;DHT22;56472;52.114;5.492;2023-09-07T03:18:05;23.20;68.30
69328;DHT22;56472;52.114;5.492;2023-09-07T03:20:33;23.20;68.20
69328;DHT22;56472;52.114;5.492;2023-09-07T03:23:02;23.20;68.10
69328;DHT22;56472;52.114;5.492;2023-09-07T03:25:29;23.20;67.90
69328;DHT22;56472;52.114;5.492;2023-09-07T03:27:56;23.20;67.60
69328;DHT22;56472;52.114;5.492;2023-09-07T03:30:23;23.20;67.40
69328;DHT22;56472;52.114;5.492;2023-09-07T03:32:52;23.10;67.10
69328;DHT22;56472;52.114;5.492;2023-09-07T03:35:19;23.10;67.00
69328;DHT22;56472;52.114;5.492;2023-09-07T03:37:46;23.10;67.10
69328;DHT22;56472;52.114;5.492;2023-09-07T03:40:14;23.10;67.10
69328;DHT22;56472;52.114;5.492;2023-09-07T03:42:41;23.10;67.10
69328;DHT22;56472;52.114;5.492;2023-09-07T03:45:09;23.10;67.20
69328;DHT22;56472;52.114;5.492;2023-09-07T03:47:37;23.10;67.30
69328;DHT22;56472;52.114;5.492;2023-09-07T03:50:04;23.10;67.40
69328;DHT22;56472;52.114;5.492;2023-09-07T03:52:32;23.00;67.50
69328;DHT22;56472;52.114;5.492;2023-09-07T03:55:01;23.00;67.60
69328;DHT22;56472;52.114;5.492;2023-09-07T03:57:28;23.00;67.80
69328;DHT22;56472;52.114;5.492;2023-09-07T03:59:57;23.00;68.00
69328;DHT22;56472;52.114;5.492;2023-09-07T04:02:24;23.00;68.00
69328;DHT22;56472;52.114;5.492;2023-09-07T04:04:52;23.00;68.00
69328;DHT22;56472;52.114;5.492;2023-09-07T04:07:20;23.00;67.90
69328;DHT22;56472;52.114;5.492;2023-09-07T04:09:47;23.00;67.70
69328;DHT22;56472;52.114;5.492;2023-09-07T04:12:14;23.00;67.50
69328;DHT22;56472;52.114;5.492;2023-09-07T04:14:41;22.90;67.10
69328;DHT22;56472;52.114;5.492;2023-09-07T04:17:09;22.90;66.90
69328;DHT22;56472;52.114;5.492;2023-09-07T04:19:36;22.90;66.70
69328;DHT22;56472;52.114;5.492;2023-09-07T04:22:03;22.90;66.60
69328;DHT22;56472;52.114;5.492;2023-09-07T04:24:30;22.90;66.60
69328;DHT22;56472;52.114;5.492;2023-09-07T04:27:00;22.80;66.50
69328;DHT22;56472;52.114;5.492;2023-09-07T04:29:29;22.90;66.40
69328;DHT22;56472;52.114;5.492;2023-09-07T04:31:56;22.80;66.40
69328;DHT22;56472;52.114;5.492;2023-09-07T04:34:23;22.80;66.40
69328;DHT22;56472;52.114;5.492;2023-09-07T04:36:52;22.80;66.40
69328;DHT22;56472;52.114;5.492;2023-09-07T04:39:19;22.80;66.40
69328;DHT22;56472;52.114;5.492;2023-09-07T04:41:46;22.80;66.40
69328;DHT22;56472;52.114;5.492;2023-09-07T04:44:14;22.80;66.40
69328;DHT22;56472;52.114;5.492;2023-09-07T04:46:41;22.70;66.30
69328;DHT22;56472;52.114;5.492;2023-09-07T04:49:09;22.70;66.40
69328;DHT22;56472;52.114;5.492;2023-09-07T04:51:36;22.70;66.40
69328;DHT22;56472;52.114;5.492;2023-09-07T04:54:03;22.70;66.40
69328;DHT22;56472;52.114;5.492;2023-09-07T04:56:31;22.70;66.50
69328;DHT22;56472;52.114;5.492;2023-09-07T04:58:57;22.70;66.50
69328;DHT22;56472;52.114;5.492;2023-09-07T05:01:25;22.70;66.50
69328;DHT22;56472;52.114;5.492;2023-09-07T05:03:53;22.70;66.60
69328;DHT22;56472;52.114;5.492;2023-09-07T05:06:22;22.60;66.60
69328;DHT22;56472;52.114;5.492;2023-09-07T05:08:50;22.60;66.70
69328;DHT22;56472;52.114;5.492;2023-09-07T05:11:16;22.60;66.80
69328;DHT22;56472;52.114;5.492;2023-09-07T05:13:43;22.60;66.80
69328;DHT22;56472;52.114;5.492;2023-09-07T05:16:10;22.60;66.90
69328;DHT22;56472;52.114;5.492;2023-09-07T05:18:37;22.60;66.90
69328;DHT22;56472;52.114;5.492;2023-09-07T05:21:14;22.60;67.00
69328;DHT22;56472;52.114;5.492;2023-09-07T05:23:42;22.60;67.00
69328;DHT22;56472;52.114;5.492;2023-09-07T05:26:09;22.60;67.10
69328;DHT22;56472;52.114;5.492;2023-09-07T05:28:36;22.50;67.10
69328;DHT22;56472;52.114;5.492;2023-09-07T05:31:03;22.50;67.20
69328;DHT22;56472;52.114;5.492;2023-09-07T05:33:31;22.50;67.20
69328;DHT22;56472;52.114;5.492;2023-09-07T05:35:58;22.50;67.20
69328;DHT22;56472;52.114;5.492;2023-09-07T05:38:25;22.50;67.20
69328;DHT22;56472;52.114;5.492;2023-09-07T05:40:52;22.50;67.20
69328;DHT22;56472;52.114;5.492;2023-09-07T05:43:22;22.50;67.30
69328;DHT22;56472;52.114;5.492;2023-09-07T05:45:49;22.50;67.40
69328;DHT22;56472;52.114;5.492;2023-09-07T05:48:16;22.50;67.50
69328;DHT22;56472;52.114;5.492;2023-09-07T05:50:45;22.50;67.50
69328;DHT22;56472;52.114;5.492;2023-09-07T05:53:12;22.50;68.60
69328;DHT22;56472;52.114;5.492;2023-09-07T05:55:39;22.50;67.90
69328;DHT22;56472;52.114;5.492;2023-09-07T05:58:07;22.50;68.00
69328;DHT22;56472;52.114;5.492;2023-09-07T06:00:38;22.50;68.10
69328;DHT22;56472;52.114;5.492;2023-09-07T06:03:09;22.50;68.30
69328;DHT22;56472;52.114;5.492;2023-09-07T06:05:37;22.50;68.70
69328;DHT22;56472;52.114;5.492;2023-09-07T06:08:07;22.50;68.80
69328;DHT22;56472;52.114;5.492;2023-09-07T06:10:35;22.50;68.90
69328;DHT22;56472;52.114;5.492;2023-09-07T06:13:03;22.50;69.10
69328;DHT22;56472;52.114;5.492;2023-09-07T06:15:30;22.60;69.20
69328;DHT22;56472;52.114;5.492;2023-09-07T06:17:57;22.60;69.50
69328;DHT22;56472;52.114;5.492;2023-09-07T06:20:25;22.60;69.80
69328;DHT22;56472;52.114;5.492;2023-09-07T06:22:53;22.60;70.10
69328;DHT22;56472;52.114;5.492;2023-09-07T06:25:19;22.60;71.10
69328;DHT22;56472;52.114;5.492;2023-09-07T06:27:48;22.60;70.50
69328;DHT22;56472;52.114;5.492;2023-09-07T06:30:15;22.70;70.70
69328;DHT22;56472;52.114;5.492;2023-09-07T06:32:42;22.70;70.90
69328;DHT22;56472;52.114;5.492;2023-09-07T06:35:10;22.70;71.00
69328;DHT22;56472;52.114;5.492;2023-09-07T06:37:37;22.70;71.20
69328;DHT22;56472;52.114;5.492;2023-09-07T06:40:10;22.70;71.50
69328;DHT22;56472;52.114;5.492;2023-09-07T06:42:38;22.80;71.60
69328;DHT22;56472;52.114;5.492;2023-09-07T06:45:10;22.80;71.80
69328;DHT22;56472;52.114;5.492;2023-09-07T06:47:38;22.80;72.00
69328;DHT22;56472;52.114;5.492;2023-09-07T06:50:06;22.80;72.10
69328;DHT22;56472;52.114;5.492;2023-09-07T06:52:33;22.90;72.30
69328;DHT22;56472;52.114;5.492;2023-09-07T06:55:00;22.90;72.50
69328;DHT22;56472;52.114;5.492;2023-09-07T06:57:27;22.90;72.70
69328;DHT22;56472;52.114;5.492;2023-09-07T06:59:54;22.90;73.00
69328;DHT22;56472;52.114;5.492;2023-09-07T07:02:21;23.00;73.20
69328;DHT22;56472;52.114;5.492;2023-09-07T07:04:48;23.00;73.30
69328;DHT22;56472;52.114;5.492;2023-09-07T07:07:17;23.00;73.70
69328;DHT22;56472;52.114;5.492;2023-09-07T07:09:43;23.00;73.90
69328;DHT22;56472;52.114;5.492;2023-09-07T07:12:10;23.00;74.10
69328;DHT22;56472;52.114;5.492;2023-09-07T07:14:39;23.10;74.30
69328;DHT22;56472;52.114;5.492;2023-09-07T07:17:06;23.10;74.40
69328;DHT22;56472;52.114;5.492;2023-09-07T07:19:34;23.10;74.50
69328;DHT22;56472;52.114;5.492;2023-09-07T07:22:02;23.10;74.80
69328;DHT22;56472;52.114;5.492;2023-09-07T07:24:30;23.20;75.10
69328;DHT22;56472;52.114;5.492;2023-09-07T07:26:57;23.20;75.40
69328;DHT22;56472;52.114;5.492;2023-09-07T07:29:24;23.20;75.60
69328;DHT22;56472;52.114;5.492;2023-09-07T07:31:52;23.20;75.90
69328;DHT22;56472;52.114;5.492;2023-09-07T07:34:19;23.20;76.10
69328;DHT22;56472;52.114;5.492;2023-09-07T07:36:46;23.30;76.40
69328;DHT22;56472;52.114;5.492;2023-09-07T07:39:13;23.40;76.60
69328;DHT22;56472;52.114;5.492;2023-09-07T07:41:40;23.40;76.80
69328;DHT22;56472;52.114;5.492;2023-09-07T07:44:09;23.40;76.80
69328;DHT22;56472;52.114;5.492;2023-09-07T07:46:36;23.40;76.90
69328;DHT22;56472;52.114;5.492;2023-09-07T07:49:03;23.40;77.00
69328;DHT22;56472;52.114;5.492;2023-09-07T07:51:30;23.50;77.20
69328;DHT22;56472;52.114;5.492;2023-09-07T07:53:57;23.50;77.40
69328;DHT22;56472;52.114;5.492;2023-09-07T07:56:24;23.50;77.70
69328;DHT22;56472;52.114;5.492;2023-09-07T07:58:53;23.60;78.10
69328;DHT22;56472;52.114;5.492;2023-09-07T08:01:20;23.60;78.40
69328;DHT22;56472;52.114;5.492;2023-09-07T08:03:50;23.60;78.60
69328;DHT22;56472;52.114;5.492;2023-09-07T08:06:17;23.60;78.70
69328;DHT22;56472;52.114;5.492;2023-09-07T08:08:45;23.70;79.00
69328;DHT22;56472;52.114;5.492;2023-09-07T08:11:12;23.70;79.10
69328;DHT22;56472;52.114;5.492;2023-09-07T08:13:40;23.70;79.30
69328;DHT22;56472;52.114;5.492;2023-09-07T08:16:08;23.70;79.30
69328;DHT22;56472;52.114;5.492;2023-09-07T08:18:38;23.80;79.40
69328;DHT22;56472;52.114;5.492;2023-09-07T08:21:07;23.80;79.40
69328;DHT22;56472;52.114;5.492;2023-09-07T08:23:33;23.80;79.40
69328;DHT22;56472;52.114;5.492;2023-09-07T08:26:01;23.80;79.40
69328;DHT22;56472;52.114;5.492;2023-09-07T08:28:29;23.90;79.40
69328;DHT22;56472;52.114;5.492;2023-09-07T08:30:57;23.90;79.10
69328;DHT22;56472;52.114;5.492;2023-09-07T08:33:26;23.90;79.00
69328;DHT22;56472;52.114;5.492;2023-09-07T08:35:57;24.00;78.80
69328;DHT22;56472;52.114;5.492;2023-09-07T08:38:24;24.00;78.50
69328;DHT22;56472;52.114;5.492;2023-09-07T08:40:55;24.00;78.20
69328;DHT22;56472;52.114;5.492;2023-09-07T08:43:23;24.00;77.90
69328;DHT22;56472;52.114;5.492;2023-09-07T08:46:09;24.00;77.70
69328;DHT22;56472;52.114;5.492;2023-09-07T08:48:44;24.10;77.60
69328;DHT22;56472;52.114;5.492;2023-09-07T08:51:15;24.10;77.50
69328;DHT22;56472;52.114;5.492;2023-09-07T08:53:42;24.10;77.30
69328;DHT22;56472;52.114;5.492;2023-09-07T08:56:13;24.10;77.10
69328;DHT22;56472;52.114;5.492;2023-09-07T08:58:42;24.10;76.90
69328;DHT22;56472;52.114;5.492;2023-09-07T09:01:09;24.20;77.00
69328;DHT22;56472;52.114;5.492;2023-09-07T09:03:36;24.20;76.90
69328;DHT22;56472;52.114;5.492;2023-09-07T09:06:04;24.20;77.00
69328;DHT22;56472;52.114;5.492;2023-09-07T09:08:48;24.20;77.00
69328;DHT22;56472;52.114;5.492;2023-09-07T09:11:19;24.30;77.80
69328;DHT22;56472;52.114;5.492;2023-09-07T09:13:47;24.30;76.80
69328;DHT22;56472;52.114;5.492;2023-09-07T09:16:14;24.30;76.70
69328;DHT22;56472;52.114;5.492;2023-09-07T09:18:49;24.30;76.60
69328;DHT22;56472;52.114;5.492;2023-09-07T09:21:20;24.30;76.50
69328;DHT22;56472;52.114;5.492;2023-09-07T09:23:54;24.40;76.50
69328;DHT22;56472;52.114;5.492;2023-09-07T09:26:24;24.30;76.40
69328;DHT22;56472;52.114;5.492;2023-09-07T09:28:55;24.40;77.20
69328;DHT22;56472;52.114;5.492;2023-09-07T09:31:23;24.40;76.30
69328;DHT22;56472;52.114;5.492;2023-09-07T09:33:51;24.40;76.20
69328;DHT22;56472;52.114;5.492;2023-09-07T09:36:18;24.40;76.00
69328;DHT22;56472;52.114;5.492;2023-09-07T09:38:48;24.50;75.80
69328;DHT22;56472;52.114;5.492;2023-09-07T09:41:17;24.40;75.60
69328;DHT22;56472;52.114;5.492;2023-09-07T09:43:46;24.50;75.40
69328;DHT22;56472;52.114;5.492;2023-09-07T09:46:16;24.50;75.20
69328;DHT22;56472;52.114;5.492;2023-09-07T09:48:44;24.50;75.10
69328;DHT22;56472;52.114;5.492;2023-09-07T09:51:11;24.50;75.00
69328;DHT22;56472;52.114;5.492;2023-09-07T09:53:39;24.60;75.00
69328;DHT22;56472;52.114;5.492;2023-09-07T09:56:06;24.50;74.80
69328;DHT22;56472;52.114;5.492;2023-09-07T09:58:33;24.60;74.70
69328;DHT22;56472;52.114;5.492;2023-09-07T10:01:00;24.60;74.40
69328;DHT22;56472;52.114;5.492;2023-09-07T10:03:46;24.60;74.30
69328;DHT22;56472;52.114;5.492;2023-09-07T10:06:24;24.60;74.30
69328;DHT22;56472;52.114;5.492;2023-09-07T10:09:05;24.60;74.40
69328;DHT22;56472;52.114;5.492;2023-09-07T10:11:38;24.60;74.40
69328;DHT22;56472;52.114;5.492;2023-09-07T10:14:07;24.60;75.20
69328;DHT22;56472;52.114;5.492;2023-09-07T10:16:47;24.60;74.10
69328;DHT22;56472;52.114;5.492;2023-09-07T10:19:20;24.70;74.20
69328;DHT22;56472;52.114;5.492;2023-09-07T10:21:48;24.70;74.20
69328;DHT22;56472;52.114;5.492;2023-09-07T10:24:31;24.70;74.20
69328;DHT22;56472;52.114;5.492;2023-09-07T10:27:04;24.70;73.90
69328;DHT22;56472;52.114;5.492;2023-09-07T10:29:45;24.70;73.80
69328;DHT22;56472;52.114;5.492;2023-09-07T10:32:13;24.80;73.70
69328;DHT22;56472;52.114;5.492;2023-09-07T10:34:46;24.80;73.60
69328;DHT22;56472;52.114;5.492;2023-09-07T10:37:14;24.80;73.50
69328;DHT22;56472;52.114;5.492;2023-09-07T10:39:43;24.80;74.30
69328;DHT22;56472;52.114;5.492;2023-09-07T10:42:23;24.80;73.40
69328;DHT22;56472;52.114;5.492;2023-09-07T10:44:51;24.80;73.40
69328;DHT22;56472;52.114;5.492;2023-09-07T10:47:18;24.80;73.40
69328;DHT22;56472;52.114;5.492;2023-09-07T10:49:45;24.90;73.40
69328;DHT22;56472;52.114;5.492;2023-09-07T10:52:12;24.90;73.40
69328;DHT22;56472;52.114;5.492;2023-09-07T10:54:39;24.90;73.40
69328;DHT22;56472;52.114;5.492;2023-09-07T10:57:10;24.90;73.80
69328;DHT22;56472;52.114;5.492;2023-09-07T10:59:37;24.90;74.00
69328;DHT22;56472;52.114;5.492;2023-09-07T11:02:05;25.00;73.80
69328;DHT22;56472;52.114;5.492;2023-09-07T11:04:33;25.00;73.50
69328;DHT22;56472;52.114;5.492;2023-09-07T11:07:00;25.00;73.30
69328;DHT22;56472;52.114;5.492;2023-09-07T11:09:27;25.00;73.10
69328;DHT22;56472;52.114;5.492;2023-09-07T11:11:56;25.00;72.90
69328;DHT22;56472;52.114;5.492;2023-09-07T11:14:29;25.00;72.60
69328;DHT22;56472;52.114;5.492;2023-09-07T11:16:56;25.00;72.40
69328;DHT22;56472;52.114;5.492;2023-09-07T11:19:23;25.10;72.50
69328;DHT22;56472;52.114;5.492;2023-09-07T11:21:53;25.10;72.70
69328;DHT22;56472;52.114;5.492;2023-09-07T11:24:20;25.10;72.70
69328;DHT22;56472;52.114;5.492;2023-09-07T11:26:47;25.10;72.80
69328;DHT22;56472;52.114;5.492;2023-09-07T11:29:15;25.10;72.80
69328;DHT22;56472;52.114;5.492;2023-09-07T11:31:43;25.20;72.60
69328;DHT22;56472;52.114;5.492;2023-09-07T11:34:12;25.10;72.30
69328;DHT22;56472;52.114;5.492;2023-09-07T11:36:39;25.10;72.00
69328;DHT22;56472;52.114;5.492;2023-09-07T11:39:07;25.20;71.90
69328;DHT22;56472;52.114;5.492;2023-09-07T11:41:43;25.20;71.70
69328;DHT22;56472;52.114;5.492;2023-09-07T11:44:11;25.20;71.70
69328;DHT22;56472;52.114;5.492;2023-09-07T11:46:39;25.20;71.70
69328;DHT22;56472;52.114;5.492;2023-09-07T11:49:07;25.20;71.70
69328;DHT22;56472;52.114;5.492;2023-09-07T11:51:36;25.20;71.60
69328;DHT22;56472;52.114;5.492;2023-09-07T11:54:03;25.30;71.70
69328;DHT22;56472;52.114;5.492;2023-09-07T11:56:31;25.30;71.60
69328;DHT22;56472;52.114;5.492;2023-09-07T11:58:58;25.30;71.50
69328;DHT22;56472;52.114;5.492;2023-09-07T12:01:25;25.30;71.40
69328;DHT22;56472;52.114;5.492;2023-09-07T12:03:54;25.30;71.40
69328;DHT22;56472;52.114;5.492;2023-09-07T12:06:21;25.40;71.40
69328;DHT22;56472;52.114;5.492;2023-09-07T12:09:03;25.40;71.30
69328;DHT22;56472;52.114;5.492;2023-09-07T12:11:31;25.40;71.20
69328;DHT22;56472;52.114;5.492;2023-09-07T12:13:58;25.40;71.10
69328;DHT22;56472;52.114;5.492;2023-09-07T12:16:26;25.40;71.00
69328;DHT22;56472;52.114;5.492;2023-09-07T12:18:54;25.40;71.00
69328;DHT22;56472;52.114;5.492;2023-09-07T12:21:21;25.40;71.00
69328;DHT22;56472;52.114;5.492;2023-09-07T12:23:48;25.40;71.00
69328;DHT22;56472;52.114;5.492;2023-09-07T12:26:15;25.40;71.00
69328;DHT22;56472;52.114;5.492;2023-09-07T12:28:43;25.50;71.10
69328;DHT22;56472;52.114;5.492;2023-09-07T12:31:11;25.50;71.20
69328;DHT22;56472;52.114;5.492;2023-09-07T12:33:38;25.50;71.20
69328;DHT22;56472;52.114;5.492;2023-09-07T12:36:05;25.50;71.00
69328;DHT22;56472;52.114;5.492;2023-09-07T12:38:36;25.50;70.80
69328;DHT22;56472;52.114;5.492;2023-09-07T12:41:03;25.60;70.80
69328;DHT22;56472;52.114;5.492;2023-09-07T12:43:30;25.60;70.60
69328;DHT22;56472;52.114;5.492;2023-09-07T12:45:57;25.60;70.60
69328;DHT22;56472;52.114;5.492;2023-09-07T12:48:25;25.60;70.60
69328;DHT22;56472;52.114;5.492;2023-09-07T12:50:53;25.60;70.50
69328;DHT22;56472;52.114;5.492;2023-09-07T12:53:20;25.60;70.30
69328;DHT22;56472;52.114;5.492;2023-09-07T12:55:52;25.60;70.20
69328;DHT22;56472;52.114;5.492;2023-09-07T12:58:19;25.70;70.20
69328;DHT22;56472;52.114;5.492;2023-09-07T13:00:47;25.70;70.20
69328;DHT22;56472;52.114;5.492;2023-09-07T13:03:17;25.70;70.20
69328;DHT22;56472;52.114;5.492;2023-09-07T13:05:45;25.70;70.30
69328;DHT22;56472;52.114;5.492;2023-09-07T13:08:12;25.70;70.30
69328;DHT22;56472;52.114;5.492;2023-09-07T13:10:39;25.70;70.40
69328;DHT22;56472;52.114;5.492;2023-09-07T13:13:06;25.70;70.40
69328;DHT22;56472;52.114;5.492;2023-09-07T13:15:34;25.70;71.10
69328;DHT22;56472;52.114;5.492;2023-09-07T13:18:01;25.70;70.50
69328;DHT22;56472;52.114;5.492;2023-09-07T13:20:28;25.80;70.60
69328;DHT22;56472;52.114;5.492;2023-09-07T13:22:55;25.80;70.60
69328;DHT22;56472;52.114;5.492;2023-09-07T13:25:21;25.80;70.60
69328;DHT22;56472;52.114;5.492;2023-09-07T13:27:48;25.80;70.70
69328;DHT22;56472;52.114;5.492;2023-09-07T13:30:16;25.90;70.70
69328;DHT22;56472;52.114;5.492;2023-09-07T13:32:42;25.90;70.60
69328;DHT22;56472;52.114;5.492;2023-09-07T13:35:12;25.90;70.50
69328;DHT22;56472;52.114;5.492;2023-09-07T13:37:39;25.90;70.50
69328;DHT22;56472;52.114;5.492;2023-09-07T13:40:06;25.90;70.20
69328;DHT22;56472;52.114;5.492;2023-09-07T13:42:34;25.90;70.00
69328;DHT22;56472;52.114;5.492;2023-09-07T13:45:01;26.00;70.30
69328;DHT22;56472;52.114;5.492;2023-09-07T13:47:28;26.00;70.30
69328;DHT22;56472;52.114;5.492;2023-09-07T13:49:55;26.00;70.30
69328;DHT22;56472;52.114;5.492;2023-09-07T13:52:22;26.00;70.20
69328;DHT22;56472;52.114;5.492;2023-09-07T13:54:49;26.00;70.10
69328;DHT22;56472;52.114;5.492;2023-09-07T13:57:15;26.10;70.20
69328;DHT22;56472;52.114;5.492;2023-09-07T13:59:42;26.10;70.30
69328;DHT22;56472;52.114;5.492;2023-09-07T14:02:09;26.10;70.30
69328;DHT22;56472;52.114;5.492;2023-09-07T14:04:36;26.10;70.20
69328;DHT22;56472;52.114;5.492;2023-09-07T14:07:03;26.20;70.20
69328;DHT22;56472;52.114;5.492;2023-09-07T14:09:30;26.20;70.00
69328;DHT22;56472;52.114;5.492;2023-09-07T14:11:57;26.20;69.80
69328;DHT22;56472;52.114;5.492;2023-09-07T14:14:23;26.20;69.50
69328;DHT22;56472;52.114;5.492;2023-09-07T14:16:51;26.20;69.40
69328;DHT22;56472;52.114;5.492;2023-09-07T14:19:22;26.30;69.50
69328;DHT22;56472;52.114;5.492;2023-09-07T14:21:50;26.30;69.50
69328;DHT22;56472;52.114;5.492;2023-09-07T14:24:16;26.30;69.40
69328;DHT22;56472;52.114;5.492;2023-09-07T14:26:43;26.30;69.40
69328;DHT22;56472;52.114;5.492;2023-09-07T14:29:10;26.30;69.30
69328;DHT22;56472;52.114;5.492;2023-09-07T14:31:37;26.30;69.20
69328;DHT22;56472;52.114;5.492;2023-09-07T14:34:05;26.30;69.10
69328;DHT22;56472;52.114;5.492;2023-09-07T14:36:32;26.40;69.00
69328;DHT22;56472;52.114;5.492;2023-09-07T14:38:58;26.40;69.00
69328;DHT22;56472;52.114;5.492;2023-09-07T14:41:25;26.50;69.00
69328;DHT22;56472;52.114;5.492;2023-09-07T14:43:54;26.40;68.90
69328;DHT22;56472;52.114;5.492;2023-09-07T14:46:21;26.50;68.90
69328;DHT22;56472;52.114;5.492;2023-09-07T14:48:50;26.50;69.00
69328;DHT22;56472;52.114;5.492;2023-09-07T14:51:17;26.50;68.90
69328;DHT22;56472;52.114;5.492;2023-09-07T14:53:44;26.50;68.80
69328;DHT22;56472;52.114;5.492;2023-09-07T14:56:12;26.60;69.00
69328;DHT22;56472;52.114;5.492;2023-09-07T14:58:39;26.60;68.90
69328;DHT22;56472;52.114;5.492;2023-09-07T15:01:05;26.60;69.00
69328;DHT22;56472;52.114;5.492;2023-09-07T15:03:32;26.60;69.00
69328;DHT22;56472;52.114;5.492;2023-09-07T15:05:59;26.70;69.20
69328;DHT22;56472;52.114;5.492;2023-09-07T15:08:26;26.70;69.40
69328;DHT22;56472;52.114;5.492;2023-09-07T15:10:53;26.70;69.70
69328;DHT22;56472;52.114;5.492;2023-09-07T15:13:20;26.70;69.70
69328;DHT22;56472;52.114;5.492;2023-09-07T15:15:48;26.80;69.80
69328;DHT22;56472;52.114;5.492;2023-09-07T15:18:15;26.80;69.70
69328;DHT22;56472;52.114;5.492;2023-09-07T15:20:42;26.80;69.70
69328;DHT22;56472;52.114;5.492;2023-09-07T15:23:08;26.80;69.70
69328;DHT22;56472;52.114;5.492;2023-09-07T15:25:36;26.80;69.60
69328;DHT22;56472;52.114;5.492;2023-09-07T15:28:03;26.90;69.70
69328;DHT22;56472;52.114;5.492;2023-09-07T15:30:32;26.90;69.50
69328;DHT22;56472;52.114;5.492;2023-09-07T15:32:59;26.90;69.30
69328;DHT22;56472;52.114;5.492;2023-09-07T15:35:26;27.00;69.10